sensor_id;sensor_type;location;lat;lon;timestamp;temperature;humidity
25450;DHT22;13371;52.080;5.624;2022-07-06T00:01:31;16.30;83.50
25450;DHT22;13371;52.080;5.624;2022-07-06T00:03:57;16.20;83.60
25450;DHT22;13371;52.080;5.624;2022-07-06T00:06:23;16.00;84.80
25450;DHT22;13371;52.080;5.624;2022-07-06T00:08:49;15.60;85.80
25450;DHT22;13371;52.080;5.624;2022-07-06T00:11:15;15.40;86.90
25450;DHT22;13371;52.080;5.624;2022-07-06T00:13:40;15.60;85.80
25450;DHT22;13371;52.080;5.624;2022-07-06T00:16:06;15.40;86.20
25450;DHT22;13371;52.080;5.624;2022-07-06T00:18:32;15.50;86.00
25450;DHT22;13371;52.080;5.624;2022-07-06T00:20:58;15.60;85.80
25450;DHT22;13371;52.080;5.624;2022-07-06T00:23:23;15.70;85.30
25450;DHT22;13371;52.080;5.624;2022-07-06T00:25:49;15.60;84.60
25450;DHT22;13371;52.080;5.624;2022-07-06T00:28:15;15.70;85.30
25450;DHT22;13371;52.080;5.624;2022-07-06T00:30:41;15.70;84.80
25450;DHT22;13371;52.080;5.624;2022-07-06T00:33:06;15.50;85.20
25450;DHT22;13371;52.080;5.624;2022-07-06T00:35:32;15.60;85.20
25450;DHT22;13371;52.080;5.624;2022-07-06T00:37:58;15.40;85.80
25450;DHT22;13371;52.080;5.624;2022-07-06T00:40:24;15.50;85.80
25450;DHT22;13371;52.080;5.624;2022-07-06T00:42:49;15.50;85.20
25450;DHT22;13371;52.080;5.624;2022-07-06T00:45:17;15.60;85.00
25450;DHT22;13371;52.080;5.624;2022-07-06T00:47:44;15.60;84.80
25450;DHT22;13371;52.080;5.624;2022-07-06T00:50:11;15.50;85.80
25450;DHT22;13371;52.080;5.624;2022-07-06T00:52:45;15.60;85.30
25450;DHT22;13371;52.080;5.624;2022-07-06T00:55:12;15.40;85.80
25450;DHT22;13371;52.080;5.624;2022-07-06T00:57:39;15.50;85.50
25450;DHT22;13371;52.080;5.624;2022-07-06T01:00:07;15.40;85.90
25450;DHT22;13371;52.080;5.624;2022-07-06T01:02:34;15.40;85.60
25450;DHT22;13371;52.080;5.624;2022-07-06T01:05:00;15.20;86.10
25450;DHT22;13371;52.080;5.624;2022-07-06T01:07:27;15.30;86.20
25450;DHT22;13371;52.080;5.624;2022-07-06T01:09:53;15.40;86.80
25450;DHT22;13371;52.080;5.624;2022-07-06T01:12:18;15.00;87.80
25450;DHT22;13371;52.080;5.624;2022-07-06T01:14:45;15.10;87.60
25450;DHT22;13371;52.080;5.624;2022-07-06T01:17:10;15.10;87.00
25450;DHT22;13371;52.080;5.624;2022-07-06T01:19:36;15.20;86.80
25450;DHT22;13371;52.080;5.624;2022-07-06T01:22:02;15.20;86.40
25450;DHT22;13371;52.080;5.624;2022-07-06T01:24:28;15.30;86.10
25450;DHT22;13371;52.080;5.624;2022-07-06T01:26:53;15.20;86.30
25450;DHT22;13371;52.080;5.624;2022-07-06T01:29:19;15.00;86.50
25450;DHT22;13371;52.080;5.624;2022-07-06T01:31:49;15.00;86.70
25450;DHT22;13371;52.080;5.624;2022-07-06T01:34:18;14.90;87.30
25450;DHT22;13371;52.080;5.624;2022-07-06T01:36:45;15.00;87.00
25450;DHT22;13371;52.080;5.624;2022-07-06T01:39:11;14.90;87.20
25450;DHT22;13371;52.080;5.624;2022-07-06T01:41:37;14.90;86.70
25450;DHT22;13371;52.080;5.624;2022-07-06T01:44:04;14.90;87.10
25450;DHT22;13371;52.080;5.624;2022-07-06T01:46:30;14.80;87.20
25450;DHT22;13371;52.080;5.624;2022-07-06T01:48:56;14.80;87.00
25450;DHT22;13371;52.080;5.624;2022-07-06T01:51:22;14.90;87.10
25450;DHT22;13371;52.080;5.624;2022-07-06T01:53:48;14.90;86.70
25450;DHT22;13371;52.080;5.624;2022-07-06T01:56:14;15.00;86.80
25450;DHT22;13371;52.080;5.624;2022-07-06T01:58:40;15.00;86.70
25450;DHT22;13371;52.080;5.624;2022-07-06T02:01:16;14.80;87.40
25450;DHT22;13371;52.080;5.624;2022-07-06T02:03:42;14.70;87.60
25450;DHT22;13371;52.080;5.624;2022-07-06T02:06:08;14.60;87.80
25450;DHT22;13371;52.080;5.624;2022-07-06T02:08:34;14.70;87.70
25450;DHT22;13371;52.080;5.624;2022-07-06T02:11:04;14.70;88.10
25450;DHT22;13371;52.080;5.624;2022-07-06T02:13:30;14.70;87.80
25450;DHT22;13371;52.080;5.624;2022-07-06T02:15:56;14.70;87.70
25450;DHT22;13371;52.080;5.624;2022-07-06T02:18:21;14.50;88.50
25450;DHT22;13371;52.080;5.624;2022-07-06T02:20:47;14.50;89.10
25450;DHT22;13371;52.080;5.624;2022-07-06T02:23:13;14.50;88.70
25450;DHT22;13371;52.080;5.624;2022-07-06T02:25:38;14.60;88.50
25450;DHT22;13371;52.080;5.624;2022-07-06T02:28:04;14.60;88.40
25450;DHT22;13371;52.080;5.624;2022-07-06T02:30:29;14.60;88.20
25450;DHT22;13371;52.080;5.624;2022-07-06T02:32:55;14.70;88.40
25450;DHT22;13371;52.080;5.624;2022-07-06T02:35:20;14.70;88.40
25450;DHT22;13371;52.080;5.624;2022-07-06T02:37:46;14.50;90.00
25450;DHT22;13371;52.080;5.624;2022-07-06T02:40:12;14.70;88.90
25450;DHT22;13371;52.080;5.624;2022-07-06T02:42:37;14.70;89.10
25450;DHT22;13371;52.080;5.624;2022-07-06T02:45:04;14.60;89.30
25450;DHT22;13371;52.080;5.624;2022-07-06T02:47:30;14.60;89.70
25450;DHT22;13371;52.080;5.624;2022-07-06T02:49:55;14.60;89.50
25450;DHT22;13371;52.080;5.624;2022-07-06T02:52:21;14.80;89.50
25450;DHT22;13371;52.080;5.624;2022-07-06T02:54:46;14.90;89.70
25450;DHT22;13371;52.080;5.624;2022-07-06T02:57:14;14.80;89.00
25450;DHT22;13371;52.080;5.624;2022-07-06T02:59:39;14.80;89.00
25450;DHT22;13371;52.080;5.624;2022-07-06T03:02:05;14.90;89.10
25450;DHT22;13371;52.080;5.624;2022-07-06T03:04:31;14.90;89.00
25450;DHT22;13371;52.080;5.624;2022-07-06T03:06:57;14.90;88.80
25450;DHT22;13371;52.080;5.624;2022-07-06T03:09:26;14.90;88.80
25450;DHT22;13371;52.080;5.624;2022-07-06T03:11:51;14.80;89.30
25450;DHT22;13371;52.080;5.624;2022-07-06T03:14:17;14.90;89.00
25450;DHT22;13371;52.080;5.624;2022-07-06T03:16:43;14.80;89.60
25450;DHT22;13371;52.080;5.624;2022-07-06T03:19:09;14.70;89.40
25450;DHT22;13371;52.080;5.624;2022-07-06T03:21:34;14.50;90.10
25450;DHT22;13371;52.080;5.624;2022-07-06T03:24:00;14.70;90.30
25450;DHT22;13371;52.080;5.624;2022-07-06T03:26:25;14.70;90.10
25450;DHT22;13371;52.080;5.624;2022-07-06T03:28:51;14.90;90.00
25450;DHT22;13371;52.080;5.624;2022-07-06T03:31:16;15.00;89.60
25450;DHT22;13371;52.080;5.624;2022-07-06T03:33:42;14.70;90.00
25450;DHT22;13371;52.080;5.624;2022-07-06T03:36:08;14.90;90.00
25450;DHT22;13371;52.080;5.624;2022-07-06T03:38:34;14.90;89.90
25450;DHT22;13371;52.080;5.624;2022-07-06T03:41:00;14.80;90.10
25450;DHT22;13371;52.080;5.624;2022-07-06T03:43:25;14.80;90.00
25450;DHT22;13371;52.080;5.624;2022-07-06T03:45:51;14.60;90.10
25450;DHT22;13371;52.080;5.624;2022-07-06T03:48:16;14.70;90.40
25450;DHT22;13371;52.080;5.624;2022-07-06T03:50:42;14.90;90.10
25450;DHT22;13371;52.080;5.624;2022-07-06T03:53:08;14.90;89.40
25450;DHT22;13371;52.080;5.624;2022-07-06T03:55:33;14.70;90.10
25450;DHT22;13371;52.080;5.624;2022-07-06T03:57:59;14.80;90.00
25450;DHT22;13371;52.080;5.624;2022-07-06T04:00:24;14.50;90.20
25450;DHT22;13371;52.080;5.624;2022-07-06T04:02:50;14.60;90.50
25450;DHT22;13371;52.080;5.624;2022-07-06T04:05:15;14.70;90.30
25450;DHT22;13371;52.080;5.624;2022-07-06T04:07:47;14.70;90.00
25450;DHT22;13371;52.080;5.624;2022-07-06T04:10:13;14.60;90.00
25450;DHT22;13371;52.080;5.624;2022-07-06T04:12:44;14.60;90.10
25450;DHT22;13371;52.080;5.624;2022-07-06T04:15:11;14.60;90.10
25450;DHT22;13371;52.080;5.624;2022-07-06T04:17:37;14.40;90.10
25450;DHT22;13371;52.080;5.624;2022-07-06T04:20:19;14.60;90.10
25450;DHT22;13371;52.080;5.624;2022-07-06T04:22:45;14.70;90.00
25450;DHT22;13371;52.080;5.624;2022-07-06T04:25:11;14.50;90.00
25450;DHT22;13371;52.080;5.624;2022-07-06T04:27:36;14.70;90.10
25450;DHT22;13371;52.080;5.624;2022-07-06T04:30:03;14.30;90.30
25450;DHT22;13371;52.080;5.624;2022-07-06T04:32:29;14.00;91.50
25450;DHT22;13371;52.080;5.624;2022-07-06T04:34:55;14.10;91.70
25450;DHT22;13371;52.080;5.624;2022-07-06T04:37:20;14.40;91.00
25450;DHT22;13371;52.080;5.624;2022-07-06T04:39:46;14.20;91.60
25450;DHT22;13371;52.080;5.624;2022-07-06T04:42:11;14.30;91.60
25450;DHT22;13371;52.080;5.624;2022-07-06T04:44:37;14.60;91.10
25450;DHT22;13371;52.080;5.624;2022-07-06T04:47:03;14.70;91.10
25450;DHT22;13371;52.080;5.624;2022-07-06T04:49:28;14.70;91.00
25450;DHT22;13371;52.080;5.624;2022-07-06T04:51:54;14.90;91.00
25450;DHT22;13371;52.080;5.624;2022-07-06T04:54:19;15.00;90.90
25450;DHT22;13371;52.080;5.624;2022-07-06T04:56:45;15.10;90.90
25450;DHT22;13371;52.080;5.624;2022-07-06T04:59:12;15.20;90.80
25450;DHT22;13371;52.080;5.624;2022-07-06T05:01:37;15.20;91.00
25450;DHT22;13371;52.080;5.624;2022-07-06T05:04:03;15.40;90.80
25450;DHT22;13371;52.080;5.624;2022-07-06T05:06:29;15.50;90.80
25450;DHT22;13371;52.080;5.624;2022-07-06T05:08:54;15.50;91.10
25450;DHT22;13371;52.080;5.624;2022-07-06T05:11:23;15.40;91.10
25450;DHT22;13371;52.080;5.624;2022-07-06T05:13:48;15.70;91.30
25450;DHT22;13371;52.080;5.624;2022-07-06T05:16:14;15.80;91.20
25450;DHT22;13371;52.080;5.624;2022-07-06T05:18:39;15.80;91.30
25450;DHT22;13371;52.080;5.624;2022-07-06T05:21:05;16.00;91.20
25450;DHT22;13371;52.080;5.624;2022-07-06T05:23:30;15.90;91.50
25450;DHT22;13371;52.080;5.624;2022-07-06T05:25:56;16.20;91.30
25450;DHT22;13371;52.080;5.624;2022-07-06T05:28:21;16.20;91.50
25450;DHT22;13371;52.080;5.624;2022-07-06T05:30:47;16.40;91.50
25450;DHT22;13371;52.080;5.624;2022-07-06T05:33:12;16.60;91.40
25450;DHT22;13371;52.080;5.624;2022-07-06T05:35:38;16.80;91.40
25450;DHT22;13371;52.080;5.624;2022-07-06T05:38:04;17.00;91.00
25450;DHT22;13371;52.080;5.624;2022-07-06T05:40:30;17.10;90.60
25450;DHT22;13371;52.080;5.624;2022-07-06T05:42:55;17.30;90.40
25450;DHT22;13371;52.080;5.624;2022-07-06T05:45:21;17.30;90.10
25450;DHT22;13371;52.080;5.624;2022-07-06T05:47:48;17.50;89.60
25450;DHT22;13371;52.080;5.624;2022-07-06T05:50:32;17.50;89.80
25450;DHT22;13371;52.080;5.624;2022-07-06T05:53:03;17.60;88.70
25450;DHT22;13371;52.080;5.624;2022-07-06T05:55:29;17.60;89.40
25450;DHT22;13371;52.080;5.624;2022-07-06T05:57:55;17.90;88.70
25450;DHT22;13371;52.080;5.624;2022-07-06T06:00:25;18.00;87.20
25450;DHT22;13371;52.080;5.624;2022-07-06T06:02:51;18.00;86.90
25450;DHT22;13371;52.080;5.624;2022-07-06T06:05:17;18.10;86.50
25450;DHT22;13371;52.080;5.624;2022-07-06T06:07:43;18.10;86.40
25450;DHT22;13371;52.080;5.624;2022-07-06T06:10:11;18.10;86.50
25450;DHT22;13371;52.080;5.624;2022-07-06T06:12:38;18.40;86.50
25450;DHT22;13371;52.080;5.624;2022-07-06T06:15:04;18.50;86.40
25450;DHT22;13371;52.080;5.624;2022-07-06T06:17:31;18.70;86.00
25450;DHT22;13371;52.080;5.624;2022-07-06T06:19:57;18.70;86.20
25450;DHT22;13371;52.080;5.624;2022-07-06T06:22:22;18.30;86.00
25450;DHT22;13371;52.080;5.624;2022-07-06T06:24:48;18.30;87.20
25450;DHT22;13371;52.080;5.624;2022-07-06T06:27:14;18.40;87.10
25450;DHT22;13371;52.080;5.624;2022-07-06T06:29:39;18.60;86.80
25450;DHT22;13371;52.080;5.624;2022-07-06T06:32:06;18.80;86.20
25450;DHT22;13371;52.080;5.624;2022-07-06T06:34:32;19.00;85.10
25450;DHT22;13371;52.080;5.624;2022-07-06T06:36:58;19.00;85.10
25450;DHT22;13371;52.080;5.624;2022-07-06T06:39:23;19.10;84.90
25450;DHT22;13371;52.080;5.624;2022-07-06T06:41:49;19.20;85.20
25450;DHT22;13371;52.080;5.624;2022-07-06T06:44:15;19.20;84.30
25450;DHT22;13371;52.080;5.624;2022-07-06T06:46:41;19.10;84.30
25450;DHT22;13371;52.080;5.624;2022-07-06T06:49:07;19.00;85.10
25450;DHT22;13371;52.080;5.624;2022-07-06T06:51:33;18.90;85.30
25450;DHT22;13371;52.080;5.624;2022-07-06T06:53:59;19.00;85.10
25450;DHT22;13371;52.080;5.624;2022-07-06T06:56:24;19.20;84.60
25450;DHT22;13371;52.080;5.624;2022-07-06T06:58:53;19.10;85.10
25450;DHT22;13371;52.080;5.624;2022-07-06T07:01:19;19.20;84.00
25450;DHT22;13371;52.080;5.624;2022-07-06T07:03:44;19.20;84.60
25450;DHT22;13371;52.080;5.624;2022-07-06T07:06:12;19.30;84.00
25450;DHT22;13371;52.080;5.624;2022-07-06T07:08:41;19.50;83.40
25450;DHT22;13371;52.080;5.624;2022-07-06T07:11:16;19.70;82.90
25450;DHT22;13371;52.080;5.624;2022-07-06T07:13:44;20.00;80.30
25450;DHT22;13371;52.080;5.624;2022-07-06T07:16:12;20.10;78.20
25450;DHT22;13371;52.080;5.624;2022-07-06T07:21:14;20.00;76.50
25450;DHT22;13371;52.080;5.624;2022-07-06T07:23:40;20.10;75.80
25450;DHT22;13371;52.080;5.624;2022-07-06T07:26:08;20.10;77.10
25450;DHT22;13371;52.080;5.624;2022-07-06T07:28:34;20.10;77.80
25450;DHT22;13371;52.080;5.624;2022-07-06T07:31:07;20.10;75.50
25450;DHT22;13371;52.080;5.624;2022-07-06T07:33:35;20.20;74.60
25450;DHT22;13371;52.080;5.624;2022-07-06T07:36:04;20.50;74.80
25450;DHT22;13371;52.080;5.624;2022-07-06T07:38:33;20.50;73.70
25450;DHT22;13371;52.080;5.624;2022-07-06T07:40:59;20.50;74.20
25450;DHT22;13371;52.080;5.624;2022-07-06T07:43:27;20.40;74.50
25450;DHT22;13371;52.080;5.624;2022-07-06T07:45:53;20.30;74.20
25450;DHT22;13371;52.080;5.624;2022-07-06T07:48:19;20.70;74.10
25450;DHT22;13371;52.080;5.624;2022-07-06T07:50:45;20.60;74.40
25450;DHT22;13371;52.080;5.624;2022-07-06T07:53:11;20.70;73.40
25450;DHT22;13371;52.080;5.624;2022-07-06T07:55:39;20.80;72.00
25450;DHT22;13371;52.080;5.624;2022-07-06T07:58:10;21.10;69.20
25450;DHT22;13371;52.080;5.624;2022-07-06T08:00:36;21.20;70.90
25450;DHT22;13371;52.080;5.624;2022-07-06T08:03:01;21.10;68.80
25450;DHT22;13371;52.080;5.624;2022-07-06T08:05:27;21.10;69.80
25450;DHT22;13371;52.080;5.624;2022-07-06T08:07:53;21.20;69.50
25450;DHT22;13371;52.080;5.624;2022-07-06T08:10:21;21.40;69.30
25450;DHT22;13371;52.080;5.624;2022-07-06T08:12:47;21.70;68.50
25450;DHT22;13371;52.080;5.624;2022-07-06T08:15:13;21.90;68.00
25450;DHT22;13371;52.080;5.624;2022-07-06T08:17:38;22.00;67.70
25450;DHT22;13371;52.080;5.624;2022-07-06T08:20:05;22.00;67.80
25450;DHT22;13371;52.080;5.624;2022-07-06T08:22:31;22.00;66.50
25450;DHT22;13371;52.080;5.624;2022-07-06T08:24:57;22.10;65.50
25450;DHT22;13371;52.080;5.624;2022-07-06T08:27:23;22.00;65.60
25450;DHT22;13371;52.080;5.624;2022-07-06T08:29:49;21.90;63.90
25450;DHT22;13371;52.080;5.624;2022-07-06T08:32:14;21.80;67.10
25450;DHT22;13371;52.080;5.624;2022-07-06T08:34:40;21.90;67.20
25450;DHT22;13371;52.080;5.624;2022-07-06T08:37:06;22.00;65.90
25450;DHT22;13371;52.080;5.624;2022-07-06T08:39:31;22.20;64.40
25450;DHT22;13371;52.080;5.624;2022-07-06T08:41:58;22.20;65.20
25450;DHT22;13371;52.080;5.624;2022-07-06T08:44:25;22.20;64.50
25450;DHT22;13371;52.080;5.624;2022-07-06T08:46:52;22.50;66.20
25450;DHT22;13371;52.080;5.624;2022-07-06T08:49:19;22.70;65.70
25450;DHT22;13371;52.080;5.624;2022-07-06T08:51:45;22.90;64.40
25450;DHT22;13371;52.080;5.624;2022-07-06T08:54:11;23.10;60.50
25450;DHT22;13371;52.080;5.624;2022-07-06T08:56:38;23.00;63.30
25450;DHT22;13371;52.080;5.624;2022-07-06T08:59:04;23.00;63.20
25450;DHT22;13371;52.080;5.624;2022-07-06T09:01:29;22.80;62.30
25450;DHT22;13371;52.080;5.624;2022-07-06T09:03:55;22.50;62.00
25450;DHT22;13371;52.080;5.624;2022-07-06T09:06:25;22.30;61.50
25450;DHT22;13371;52.080;5.624;2022-07-06T09:08:54;22.30;65.50
25450;DHT22;13371;52.080;5.624;2022-07-06T09:11:24;22.60;63.10
25450;DHT22;13371;52.080;5.624;2022-07-06T09:13:51;22.70;62.00
25450;DHT22;13371;52.080;5.624;2022-07-06T09:16:17;22.90;63.80
25450;DHT22;13371;52.080;5.624;2022-07-06T09:18:46;23.30;63.50
25450;DHT22;13371;52.080;5.624;2022-07-06T09:21:21;23.70;60.30
25450;DHT22;13371;52.080;5.624;2022-07-06T09:23:47;23.60;58.80
25450;DHT22;13371;52.080;5.624;2022-07-06T09:26:17;23.60;61.60
25450;DHT22;13371;52.080;5.624;2022-07-06T09:28:44;23.80;61.20
25450;DHT22;13371;52.080;5.624;2022-07-06T09:31:10;24.00;60.90
25450;DHT22;13371;52.080;5.624;2022-07-06T09:33:36;23.80;59.70
25450;DHT22;13371;52.080;5.624;2022-07-06T09:36:03;24.00;62.80
25450;DHT22;13371;52.080;5.624;2022-07-06T09:38:28;24.00;60.40
25450;DHT22;13371;52.080;5.624;2022-07-06T09:40:54;24.00;59.20
25450;DHT22;13371;52.080;5.624;2022-07-06T09:43:21;24.00;61.30
25450;DHT22;13371;52.080;5.624;2022-07-06T09:45:55;24.00;61.00
25450;DHT22;13371;52.080;5.624;2022-07-06T09:48:27;24.00;62.00
25450;DHT22;13371;52.080;5.624;2022-07-06T09:50:54;24.10;62.80
25450;DHT22;13371;52.080;5.624;2022-07-06T09:53:22;24.00;60.60
25450;DHT22;13371;52.080;5.624;2022-07-06T09:55:50;23.80;61.90
25450;DHT22;13371;52.080;5.624;2022-07-06T09:58:17;23.60;62.80
25450;DHT22;13371;52.080;5.624;2022-07-06T10:00:44;23.60;63.30
25450;DHT22;13371;52.080;5.624;2022-07-06T10:03:10;23.90;63.10
25450;DHT22;13371;52.080;5.624;2022-07-06T10:05:37;24.00;62.80
25450;DHT22;13371;52.080;5.624;2022-07-06T10:08:05;23.90;65.20
25450;DHT22;13371;52.080;5.624;2022-07-06T10:10:32;24.00;62.80
25450;DHT22;13371;52.080;5.624;2022-07-06T10:12:58;23.70;62.80
25450;DHT22;13371;52.080;5.624;2022-07-06T10:15:29;23.90;64.90
25450;DHT22;13371;52.080;5.624;2022-07-06T10:17:58;24.10;59.50
25450;DHT22;13371;52.080;5.624;2022-07-06T10:20:27;24.30;60.70
25450;DHT22;13371;52.080;5.624;2022-07-06T10:22:54;24.50;58.00
25450;DHT22;13371;52.080;5.624;2022-07-06T10:25:23;24.80;58.50
25450;DHT22;13371;52.080;5.624;2022-07-06T10:27:51;25.00;57.50
25450;DHT22;13371;52.080;5.624;2022-07-06T10:30:17;25.00;58.10
25450;DHT22;13371;52.080;5.624;2022-07-06T10:32:45;24.70;57.80
25450;DHT22;13371;52.080;5.624;2022-07-06T10:35:12;24.70;58.60
25450;DHT22;13371;52.080;5.624;2022-07-06T10:37:38;25.00;60.10
25450;DHT22;13371;52.080;5.624;2022-07-06T10:40:05;25.20;59.90
25450;DHT22;13371;52.080;5.624;2022-07-06T10:42:56;25.20;60.00
25450;DHT22;13371;52.080;5.624;2022-07-06T10:50:41;24.80;57.50
25450;DHT22;13371;52.080;5.624;2022-07-06T10:55:45;25.80;59.90
25450;DHT22;13371;52.080;5.624;2022-07-06T10:58:13;25.60;59.30
25450;DHT22;13371;52.080;5.624;2022-07-06T11:00:53;25.70;58.20
25450;DHT22;13371;52.080;5.624;2022-07-06T11:08:57;26.10;58.80
25450;DHT22;13371;52.080;5.624;2022-07-06T11:14:04;26.20;58.00
25450;DHT22;13371;52.080;5.624;2022-07-06T11:16:32;26.20;56.90
25450;DHT22;13371;52.080;5.624;2022-07-06T11:19:12;26.30;57.80
25450;DHT22;13371;52.080;5.624;2022-07-06T11:21:51;26.10;55.70
25450;DHT22;13371;52.080;5.624;2022-07-06T11:24:40;26.00;56.40
25450;DHT22;13371;52.080;5.624;2022-07-06T11:27:06;26.20;56.50
25450;DHT22;13371;52.080;5.624;2022-07-06T11:29:33;26.20;55.60
25450;DHT22;13371;52.080;5.624;2022-07-06T11:32:05;26.30;55.30
25450;DHT22;13371;52.080;5.624;2022-07-06T11:34:33;26.50;56.30
25450;DHT22;13371;52.080;5.624;2022-07-06T11:37:04;26.50;54.00
25450;DHT22;13371;52.080;5.624;2022-07-06T11:39:32;26.60;56.30
25450;DHT22;13371;52.080;5.624;2022-07-06T11:41:59;26.80;56.20
25450;DHT22;13371;52.080;5.624;2022-07-06T11:44:26;26.50;52.80
25450;DHT22;13371;52.080;5.624;2022-07-06T11:46:51;26.20;56.60
25450;DHT22;13371;52.080;5.624;2022-07-06T11:49:17;26.30;57.20
25450;DHT22;13371;52.080;5.624;2022-07-06T11:51:45;26.40;54.80
25450;DHT22;13371;52.080;5.624;2022-07-06T11:54:12;26.50;54.60
25450;DHT22;13371;52.080;5.624;2022-07-06T11:56:38;26.70;54.70
25450;DHT22;13371;52.080;5.624;2022-07-06T11:59:10;26.50;53.30
25450;DHT22;13371;52.080;5.624;2022-07-06T12:01:36;26.60;56.30
25450;DHT22;13371;52.080;5.624;2022-07-06T12:04:07;26.60;55.50
25450;DHT22;13371;52.080;5.624;2022-07-06T12:06:33;26.60;53.70
25450;DHT22;13371;52.080;5.624;2022-07-06T12:09:00;26.50;53.90
25450;DHT22;13371;52.080;5.624;2022-07-06T12:11:30;26.50;53.40
25450;DHT22;13371;52.080;5.624;2022-07-06T12:13:59;26.40;55.00
25450;DHT22;13371;52.080;5.624;2022-07-06T12:16:35;26.50;53.80
25450;DHT22;13371;52.080;5.624;2022-07-06T12:19:03;26.50;54.00
25450;DHT22;13371;52.080;5.624;2022-07-06T12:21:29;26.30;53.30
25450;DHT22;13371;52.080;5.624;2022-07-06T12:23:55;26.10;54.90
25450;DHT22;13371;52.080;5.624;2022-07-06T12:26:26;26.20;55.00
25450;DHT22;13371;52.080;5.624;2022-07-06T12:29:05;26.30;54.50
25450;DHT22;13371;52.080;5.624;2022-07-06T12:31:38;26.20;53.50
25450;DHT22;13371;52.080;5.624;2022-07-06T12:34:11;25.80;53.70
25450;DHT22;13371;52.080;5.624;2022-07-06T12:36:53;26.10;55.50
25450;DHT22;13371;52.080;5.624;2022-07-06T12:39:20;25.80;54.10
25450;DHT22;13371;52.080;5.624;2022-07-06T12:41:55;25.70;55.10
25450;DHT22;13371;52.080;5.624;2022-07-06T12:44:25;25.80;54.90
25450;DHT22;13371;52.080;5.624;2022-07-06T12:47:03;25.80;56.70
25450;DHT22;13371;52.080;5.624;2022-07-06T12:49:29;26.10;58.10
25450;DHT22;13371;52.080;5.624;2022-07-06T12:52:08;25.90;57.00
25450;DHT22;13371;52.080;5.624;2022-07-06T12:54:54;26.20;56.00
25450;DHT22;13371;52.080;5.624;2022-07-06T13:02:34;26.40;56.40
25450;DHT22;13371;52.080;5.624;2022-07-06T13:05:09;26.40;56.20
25450;DHT22;13371;52.080;5.624;2022-07-06T13:07:38;26.20;53.40
25450;DHT22;13371;52.080;5.624;2022-07-06T13:10:07;26.30;55.10
25450;DHT22;13371;52.080;5.624;2022-07-06T13:12:34;26.00;55.00
25450;DHT22;13371;52.080;5.624;2022-07-06T13:14:59;26.00;56.40
25450;DHT22;13371;52.080;5.624;2022-07-06T13:17:25;25.80;57.00
25450;DHT22;13371;52.080;5.624;2022-07-06T13:19:50;25.70;56.30
25450;DHT22;13371;52.080;5.624;2022-07-06T13:22:16;25.80;55.60
25450;DHT22;13371;52.080;5.624;2022-07-06T13:24:42;26.10;54.50
25450;DHT22;13371;52.080;5.624;2022-07-06T13:27:08;25.70;54.50
25450;DHT22;13371;52.080;5.624;2022-07-06T13:29:34;25.70;53.50
25450;DHT22;13371;52.080;5.624;2022-07-06T13:32:00;25.80;54.20
25450;DHT22;13371;52.080;5.624;2022-07-06T13:34:25;25.30;54.00
25450;DHT22;13371;52.080;5.624;2022-07-06T13:36:51;25.30;54.80
25450;DHT22;13371;52.080;5.624;2022-07-06T13:39:18;25.30;55.50
25450;DHT22;13371;52.080;5.624;2022-07-06T13:41:43;25.60;55.80
25450;DHT22;13371;52.080;5.624;2022-07-06T13:44:09;25.40;55.90
25450;DHT22;13371;52.080;5.624;2022-07-06T13:46:36;25.30;55.10
25450;DHT22;13371;52.080;5.624;2022-07-06T13:49:03;25.20;56.20
25450;DHT22;13371;52.080;5.624;2022-07-06T13:51:29;25.30;55.70
25450;DHT22;13371;52.080;5.624;2022-07-06T13:53:56;25.40;55.30
25450;DHT22;13371;52.080;5.624;2022-07-06T13:56:22;25.30;55.80
25450;DHT22;13371;52.080;5.624;2022-07-06T13:58:48;25.20;54.70
25450;DHT22;13371;52.080;5.624;2022-07-06T14:01:13;24.90;55.70
25450;DHT22;13371;52.080;5.624;2022-07-06T14:03:39;25.30;56.00
25450;DHT22;13371;52.080;5.624;2022-07-06T14:06:06;25.40;55.40
25450;DHT22;13371;52.080;5.624;2022-07-06T14:08:34;25.70;54.70
25450;DHT22;13371;52.080;5.624;2022-07-06T14:11:00;25.60;55.00
25450;DHT22;13371;52.080;5.624;2022-07-06T14:13:26;25.60;55.10
25450;DHT22;13371;52.080;5.624;2022-07-06T14:15:53;25.70;55.80
25450;DHT22;13371;52.080;5.624;2022-07-06T14:18:18;25.80;55.00
25450;DHT22;13371;52.080;5.624;2022-07-06T14:20:45;25.90;54.20
25450;DHT22;13371;52.080;5.624;2022-07-06T14:23:11;26.00;55.40
25450;DHT22;13371;52.080;5.624;2022-07-06T14:25:38;26.10;54.40
25450;DHT22;13371;52.080;5.624;2022-07-06T14:28:04;26.00;57.40
25450;DHT22;13371;52.080;5.624;2022-07-06T14:30:29;25.90;54.80
25450;DHT22;13371;52.080;5.624;2022-07-06T14:32:56;25.70;54.40
25450;DHT22;13371;52.080;5.624;2022-07-06T14:35:21;25.50;55.50
25450;DHT22;13371;52.080;5.624;2022-07-06T14:37:47;25.70;56.30
25450;DHT22;13371;52.080;5.624;2022-07-06T14:40:13;25.70;55.00
25450;DHT22;13371;52.080;5.624;2022-07-06T14:42:38;25.60;55.20
25450;DHT22;13371;52.080;5.624;2022-07-06T14:45:05;25.60;55.30
25450;DHT22;13371;52.080;5.624;2022-07-06T14:47:30;25.60;55.80
25450;DHT22;13371;52.080;5.624;2022-07-06T14:49:56;25.70;55.60
25450;DHT22;13371;52.080;5.624;2022-07-06T14:52:21;25.50;55.70
25450;DHT22;13371;52.080;5.624;2022-07-06T14:54:47;25.60;57.10
25450;DHT22;13371;52.080;5.624;2022-07-06T14:57:12;25.50;56.20
25450;DHT22;13371;52.080;5.624;2022-07-06T14:59:38;25.20;55.70
25450;DHT22;13371;52.080;5.624;2022-07-06T15:02:04;25.10;56.60
25450;DHT22;13371;52.080;5.624;2022-07-06T15:04:29;25.30;56.10
25450;DHT22;13371;52.080;5.624;2022-07-06T15:06:55;25.40;55.70
25450;DHT22;13371;52.080;5.624;2022-07-06T15:09:21;25.50;56.80
25450;DHT22;13371;52.080;5.624;2022-07-06T15:11:47;25.20;55.80
25450;DHT22;13371;52.080;5.624;2022-07-06T15:14:12;25.20;57.00
25450;DHT22;13371;52.080;5.624;2022-07-06T15:16:41;24.90;57.60
25450;DHT22;13371;52.080;5.624;2022-07-06T15:19:06;24.50;58.00
25450;DHT22;13371;52.080;5.624;2022-07-06T15:21:33;24.30;58.30
25450;DHT22;13371;52.080;5.624;2022-07-06T15:23:58;24.50;58.50
25450;DHT22;13371;52.080;5.624;2022-07-06T15:26:24;24.70;58.60
25450;DHT22;13371;52.080;5.624;2022-07-06T15:28:50;24.70;58.70
25450;DHT22;13371;52.080;5.624;2022-07-06T15:31:16;24.70;58.40
25450;DHT22;13371;52.080;5.624;2022-07-06T15:33:41;24.50;58.80
25450;DHT22;13371;52.080;5.624;2022-07-06T15:36:07;24.40;58.80
25450;DHT22;13371;52.080;5.624;2022-07-06T15:38:33;24.40;58.70
25450;DHT22;13371;52.080;5.624;2022-07-06T15:41:00;24.50;58.70
25450;DHT22;13371;52.080;5.624;2022-07-06T15:43:28;24.50;58.00
25450;DHT22;13371;52.080;5.624;2022-07-06T15:45:56;24.50;58.90
25450;DHT22;13371;52.080;5.624;2022-07-06T15:48:23;24.50;58.70
25450;DHT22;13371;52.080;5.624;2022-07-06T15:50:49;24.70;59.10
25450;DHT22;13371;52.080;5.624;2022-07-06T15:53:15;24.80;59.40